createdAt,value
2023-02-06T00:01:18.702Z,19.77
2023-02-06T00:04:05.512Z,18.90
2023-02-06T00:06:53.626Z,20.33
2023-02-06T00:09:39.933Z,41.83
2023-02-06T00:12:26.304Z,24.30
2023-02-06T00:15:12.913Z,17.17
2023-02-06T00:17:59.195Z,18.50
2023-02-06T00:20:45.616Z,14.93
2023-02-06T00:23:33.381Z,16.63
2023-02-06T00:26:20.084Z,15.23
2023-02-06T00:29:06.420Z,15.67
2023-02-06T00:31:52.995Z,15.13
2023-02-06T00:34:39.319Z,19.43
2023-02-06T00:37:25.680Z,15.60
2023-02-06T00:40:13.710Z,14.47
2023-02-06T00:43:00.105Z,17.77
2023-02-06T00:45:46.442Z,17.80
2023-02-06T00:48:33.077Z,13.47
2023-02-06T00:51:19.389Z,14.20
2023-02-06T00:54:06.087Z,11.40
2023-02-06T00:56:53.806Z,11.87
2023-02-06T00:59:40.397Z,14.53
2023-02-06T01:02:26.772Z,15.73
2023-02-06T01:05:13.176Z,19.07
2023-02-06T01:07:59.484Z,13.57
2023-02-06T01:10:47.162Z,12.87
2023-02-06T01:13:35.312Z,15.33
2023-02-06T01:16:24.003Z,14.73
2023-02-06T01:19:10.507Z,15.30
2023-02-06T01:21:56.827Z,13.73
2023-02-06T01:24:43.314Z,14.97
2023-02-06T01:27:29.657Z,14.13
2023-02-06T01:30:17.550Z,13.30
2023-02-06T01:33:03.877Z,15.33
2023-02-06T01:35:56.490Z,14.47
2023-02-06T01:38:43.884Z,18.93
2023-02-06T01:41:30.568Z,19.20
2023-02-06T01:44:22.009Z,15.83
2023-02-06T01:47:11.726Z,16.73
2023-02-06T01:49:58.508Z,19.60
2023-02-06T01:52:45.209Z,16.40
2023-02-06T01:55:32.024Z,18.83
2023-02-06T01:58:22.167Z,14.57
2023-02-06T02:01:09.738Z,17.07
2023-02-06T02:04:03.056Z,17.07
2023-02-06T02:06:56.197Z,15.70
2023-02-06T02:09:42.628Z,15.07
2023-02-06T02:12:29.162Z,14.13
2023-02-06T02:15:15.878Z,16.03
2023-02-06T02:18:07.072Z,12.47
2023-02-06T02:21:29.559Z,13.70
2023-02-06T02:24:21.128Z,18.00
2023-02-06T02:27:55.120Z,15.60
2023-02-06T02:31:17.180Z,16.80
2023-02-06T02:34:30.783Z,18.43
2023-02-06T02:37:27.439Z,16.93
2023-02-06T02:40:24.042Z,15.57
2023-02-06T02:43:21.479Z,16.23
2023-02-06T02:46:18.918Z,16.93
2023-02-06T02:49:10.373Z,15.87
2023-02-06T02:51:58.571Z,14.60
2023-02-06T02:54:46.471Z,13.13
2023-02-06T02:57:33.389Z,14.60
2023-02-06T03:00:21.426Z,18.40
2023-02-06T03:03:11.009Z,17.50
2023-02-06T03:06:13.913Z,12.73
2023-02-06T03:09:07.020Z,15.37
2023-02-06T03:12:02.794Z,15.10
2023-02-06T03:14:54.943Z,15.93
2023-02-06T03:17:47.612Z,14.03
2023-02-06T03:20:34.664Z,13.07
2023-02-06T03:23:28.555Z,17.10
2023-02-06T03:26:18.855Z,15.63
2023-02-06T03:29:12.412Z,16.37
2023-02-06T03:32:03.065Z,20.17
2023-02-06T03:34:56.610Z,14.90
2023-02-06T03:37:43.759Z,13.23
2023-02-06T03:40:30.764Z,15.63
2023-02-06T03:43:19.764Z,16.60
2023-02-06T03:46:12.474Z,18.30
2023-02-06T03:49:03.052Z,14.07
2023-02-06T03:51:56.820Z,16.93
2023-02-06T03:54:49.195Z,15.47
2023-02-06T03:57:37.840Z,16.87
2023-02-06T04:00:25.351Z,19.20
2023-02-06T04:03:15.312Z,15.70
2023-02-06T04:06:01.881Z,16.27
2023-02-06T04:08:48.578Z,16.00
2023-02-06T04:11:34.857Z,16.57
2023-02-06T04:14:21.176Z,14.93
2023-02-06T04:17:08.177Z,17.00
2023-02-06T04:19:56.304Z,18.40
2023-02-06T04:22:42.772Z,17.27
2023-02-06T04:25:29.230Z,15.07
2023-02-06T04:28:15.691Z,15.27
2023-02-06T04:31:02.495Z,16.77
2023-02-06T04:33:49.325Z,23.57
2023-02-06T04:36:37.648Z,22.87
2023-02-06T04:39:24.012Z,20.57
2023-02-06T04:42:10.514Z,16.87
2023-02-06T04:44:56.972Z,19.33
2023-02-06T04:47:43.645Z,21.37
2023-02-06T04:50:31.759Z,19.70
2023-02-06T04:53:20.285Z,19.27
2023-02-06T04:56:09.009Z,18.07
2023-02-06T04:58:55.496Z,22.30
2023-02-06T05:01:42.934Z,23.47
2023-02-06T05:04:29.666Z,21.20
2023-02-06T05:07:15.916Z,20.57
2023-02-06T05:10:03.717Z,19.63
2023-02-06T05:12:50.924Z,17.83
2023-02-06T05:15:37.645Z,18.47
2023-02-06T05:18:24.481Z,21.27
2023-02-06T05:21:11.204Z,24.43
2023-02-06T05:23:57.823Z,18.03
2023-02-06T05:26:46.514Z,20.43
2023-02-06T05:29:32.813Z,17.53
2023-02-06T05:32:19.701Z,22.83
2023-02-06T05:35:06.369Z,23.33
2023-02-06T05:37:52.784Z,22.03
2023-02-06T05:40:38.975Z,23.97
2023-02-06T05:43:26.987Z,22.77
2023-02-06T05:46:13.631Z,27.23
2023-02-06T05:49:01.048Z,26.20
2023-02-06T05:51:47.684Z,22.33
2023-02-06T05:54:34.142Z,25.87
2023-02-06T05:57:20.431Z,26.97
2023-02-06T06:00:09.921Z,23.77
2023-02-06T06:02:56.231Z,22.87
2023-02-06T06:05:42.734Z,24.17
2023-02-06T06:08:29.021Z,24.47
2023-02-06T06:11:15.921Z,21.27
2023-02-06T06:14:02.465Z,21.57
2023-02-06T06:16:50.290Z,24.53
2023-02-06T06:19:36.859Z,22.40
2023-02-06T06:22:23.500Z,26.80
2023-02-06T06:25:09.931Z,24.90
2023-02-06T06:27:56.614Z,22.30
2023-02-06T06:30:43.600Z,26.40
2023-02-06T06:33:31.238Z,26.73
2023-02-06T06:36:18.148Z,26.13
2023-02-06T06:39:05.123Z,23.90
2023-02-06T06:41:51.419Z,25.83
2023-02-06T06:44:37.998Z,25.33
2023-02-06T06:47:24.536Z,26.53
2023-02-06T06:50:12.573Z,25.67
2023-02-06T06:52:58.903Z,26.40
2023-02-06T06:55:45.549Z,26.47
2023-02-06T06:58:32.596Z,27.23
2023-02-06T07:01:19.759Z,27.33
2023-02-06T07:04:06.273Z,25.13
2023-02-06T07:06:54.478Z,25.80
2023-02-06T07:09:41.137Z,26.47
2023-02-06T07:12:27.879Z,30.03
2023-02-06T07:15:14.828Z,27.07
2023-02-06T07:18:01.348Z,28.03
2023-02-06T07:20:47.601Z,29.50
2023-02-06T07:23:36.939Z,33.60
2023-02-06T07:26:23.493Z,35.10
2023-02-06T07:29:10.262Z,34.60
2023-02-06T07:31:56.907Z,32.27
2023-02-06T07:34:43.411Z,29.90
2023-02-06T07:37:29.870Z,29.23
2023-02-06T07:40:17.940Z,30.67
2023-02-06T07:43:07.530Z,36.07
2023-02-06T07:45:54.162Z,33.87
2023-02-06T07:48:40.563Z,34.93
2023-02-06T07:51:26.924Z,30.30
2023-02-06T07:54:13.684Z,33.07
2023-02-06T07:57:01.725Z,32.83
2023-02-06T07:59:48.089Z,33.10
2023-02-06T08:02:34.612Z,34.03
2023-02-06T08:05:20.865Z,45.13
2023-02-06T08:08:07.807Z,48.50
2023-02-06T08:10:54.093Z,75.90
2023-02-06T08:13:42.812Z,67.67
2023-02-06T08:16:29.363Z,42.77
2023-02-06T08:19:16.086Z,40.17
2023-02-06T08:22:02.532Z,40.03
2023-02-06T08:24:49.126Z,45.70
2023-02-06T08:27:35.869Z,36.93
2023-02-06T08:30:24.228Z,45.30
2023-02-06T08:33:10.794Z,38.20
2023-02-06T08:35:57.104Z,36.33
2023-02-06T08:38:43.500Z,42.00
2023-02-06T08:41:32.060Z,38.53
2023-02-06T08:44:19.408Z,43.70
2023-02-06T08:47:10.271Z,40.13
2023-02-06T08:49:57.066Z,39.33
2023-02-06T08:52:43.574Z,40.23
2023-02-06T08:55:30.009Z,45.13
2023-02-06T08:58:16.699Z,42.40
2023-02-06T09:01:07.790Z,44.30
2023-02-06T09:03:58.041Z,35.30
2023-02-06T09:06:48.749Z,41.23
2023-02-06T09:09:35.347Z,42.90
2023-02-06T09:12:21.926Z,35.20
2023-02-06T09:15:09.569Z,32.43
2023-02-06T09:17:56.374Z,30.93
2023-02-06T09:20:46.100Z,29.10
2023-02-06T09:23:32.377Z,50.87
2023-02-06T09:26:20.855Z,51.03
2023-02-06T09:29:09.419Z,28.60
2023-02-06T09:31:57.210Z,31.73
2023-02-06T09:34:43.833Z,27.67
2023-02-06T09:37:32.633Z,30.40
2023-02-06T09:40:25.048Z,29.97
2023-02-06T09:43:14.801Z,27.50
2023-02-06T09:46:03.856Z,31.87
2023-02-06T09:48:51.757Z,32.33
2023-02-06T09:51:50.972Z,26.47
2023-02-06T09:54:46.954Z,29.20
2023-02-06T09:57:41.903Z,27.97
2023-02-06T10:00:38.297Z,46.33
2023-02-06T10:03:58.259Z,25.17
2023-02-06T10:06:50.249Z,28.87
2023-02-06T10:09:45.896Z,24.47
2023-02-06T10:12:38.631Z,19.53
2023-02-06T10:15:32.784Z,21.57
2023-02-06T10:18:25.224Z,21.47
2023-02-06T10:21:19.867Z,19.13
2023-02-06T10:24:12.568Z,17.17
2023-02-06T10:27:04.036Z,17.77
2023-02-06T10:29:50.466Z,14.47
2023-02-06T10:32:45.850Z,36.63
2023-02-06T10:35:44.242Z,19.17
2023-02-06T10:38:55.274Z,16.10
2023-02-06T10:41:48.605Z,14.73
2023-02-06T10:44:51.038Z,14.63
2023-02-06T10:47:44.527Z,15.73
2023-02-06T10:50:35.837Z,13.20
2023-02-06T10:53:26.830Z,19.13
2023-02-06T10:56:16.532Z,15.33
2023-02-06T10:59:07.702Z,11.87
2023-02-06T11:02:04.495Z,17.93
2023-02-06T11:04:56.971Z,14.63
2023-02-06T11:07:47.562Z,16.77
2023-02-06T11:10:34.138Z,16.43
2023-02-06T11:13:27.182Z,15.73
2023-02-06T11:16:16.730Z,15.77
2023-02-06T11:19:17.333Z,34.23
2023-02-06T11:22:14.764Z,18.13
2023-02-06T11:25:03.882Z,15.57
2023-02-06T11:27:51.004Z,18.53
2023-02-06T11:30:40.848Z,16.37
2023-02-06T11:33:36.877Z,19.83
2023-02-06T11:36:28.023Z,18.83
2023-02-06T11:39:24.077Z,16.33
2023-02-06T11:42:21.836Z,14.30
2023-02-06T11:45:25.149Z,17.50
2023-02-06T11:48:31.963Z,18.03
2023-02-06T11:51:18.520Z,18.93
2023-02-06T11:54:06.327Z,19.90
2023-02-06T11:57:07.801Z,20.70
2023-02-06T11:59:57.992Z,20.57
2023-02-06T12:02:52.186Z,16.20
2023-02-06T12:05:42.860Z,22.30
2023-02-06T12:08:46.260Z,17.57
2023-02-06T12:11:38.142Z,16.17
2023-02-06T12:14:29.444Z,18.20
2023-02-06T12:17:24.869Z,19.50
2023-02-06T12:20:17.405Z,21.00
2023-02-06T12:23:13.687Z,18.63
2023-02-06T12:26:03.030Z,21.57
2023-02-06T12:28:58.967Z,14.07
2023-02-06T12:31:53.217Z,16.77
2023-02-06T12:34:53.569Z,20.27
2023-02-06T12:37:46.616Z,16.03
2023-02-06T12:40:43.641Z,16.83
2023-02-06T12:43:33.456Z,24.73
2023-02-06T12:46:24.939Z,17.83
2023-02-06T12:49:17.402Z,16.77
2023-02-06T12:52:10.766Z,15.60
2023-02-06T12:55:07.558Z,14.87
2023-02-06T12:57:55.041Z,18.80
2023-02-06T13:00:55.142Z,13.20
2023-02-06T13:03:46.445Z,15.40
2023-02-06T13:06:46.459Z,14.57
2023-02-06T13:09:37.406Z,24.23
2023-02-06T13:12:25.559Z,14.73
2023-02-06T13:15:23.471Z,17.70
2023-02-06T13:18:52.532Z,16.70
2023-02-06T13:21:40.519Z,15.57
2023-02-06T13:24:27.193Z,15.10
2023-02-06T13:27:17.586Z,17.23
2023-02-06T13:30:39.187Z,16.27
2023-02-06T13:33:28.070Z,18.80
2023-02-06T13:36:19.334Z,16.50
2023-02-06T13:39:23.561Z,17.63
2023-02-06T13:42:34.420Z,19.63
2023-02-06T13:45:24.353Z,12.00
2023-02-06T13:48:48.430Z,13.73
2023-02-06T13:51:50.143Z,15.57
2023-02-06T13:55:08.581Z,15.60
2023-02-06T13:58:12.157Z,15.67
2023-02-06T14:01:00.647Z,16.50
2023-02-06T14:03:49.726Z,14.00
2023-02-06T14:06:52.651Z,13.43
2023-02-06T14:10:11.126Z,10.87
2023-02-06T14:13:12.092Z,15.57
2023-02-06T14:16:11.110Z,14.30
2023-02-06T14:19:02.542Z,13.57
2023-02-06T14:21:58.644Z,14.70
2023-02-06T14:25:04.566Z,13.87
2023-02-06T14:28:06.774Z,12.47
2023-02-06T14:31:04.176Z,14.37
2023-02-06T14:34:05.138Z,12.57
2023-02-06T14:37:11.013Z,12.10
2023-02-06T14:40:04.500Z,11.40
2023-02-06T14:42:53.054Z,10.87
2023-02-06T14:45:46.206Z,13.97
2023-02-06T14:48:40.533Z,14.67
2023-02-06T14:51:30.550Z,14.70
2023-02-06T14:54:32.500Z,14.03
2023-02-06T14:57:24.600Z,12.33
2023-02-06T15:00:20.219Z,15.63
2023-02-06T15:03:17.516Z,15.20
2023-02-06T15:06:06.083Z,10.87
2023-02-06T15:08:52.713Z,12.47
2023-02-06T15:11:39.892Z,16.40
2023-02-06T15:14:28.658Z,12.93
2023-02-06T15:17:20.615Z,12.90
2023-02-06T15:20:26.010Z,14.63
2023-02-06T15:23:18.813Z,14.83
2023-02-06T15:26:12.787Z,13.63
2023-02-06T15:29:01.103Z,16.73
2023-02-06T15:31:52.248Z,13.80
2023-02-06T15:34:39.398Z,16.37
2023-02-06T15:37:29.815Z,14.60
2023-02-06T15:40:20.916Z,15.87
2023-02-06T15:43:07.528Z,19.37
2023-02-06T15:45:57.082Z,19.70
2023-02-06T15:48:51.304Z,24.37
2023-02-06T15:51:41.055Z,21.80
2023-02-06T15:54:29.892Z,23.67
2023-02-06T15:57:28.949Z,30.53
2023-02-06T16:00:24.278Z,21.50
2023-02-06T16:03:24.041Z,22.40
2023-02-06T16:06:15.681Z,23.73
2023-02-06T16:09:07.139Z,19.63
2023-02-06T16:11:57.232Z,23.03
2023-02-06T16:14:56.013Z,20.27
2023-02-06T16:17:42.710Z,27.10
2023-02-06T16:20:39.658Z,29.20
2023-02-06T16:23:29.138Z,22.90
2023-02-06T16:26:18.248Z,22.80
2023-02-06T16:29:18.552Z,24.77
2023-02-06T16:32:15.932Z,22.77
2023-02-06T16:35:02.473Z,21.10
2023-02-06T16:37:49.823Z,22.93
2023-02-06T16:40:36.509Z,21.67
2023-02-06T16:43:23.588Z,24.37
2023-02-06T16:46:11.232Z,27.90
2023-02-06T16:49:01.912Z,22.87
2023-02-06T16:51:51.123Z,24.43
2023-02-06T16:54:39.101Z,25.57
2023-02-06T16:57:30.812Z,26.37
2023-02-06T17:00:20.014Z,28.93
2023-02-06T17:03:07.890Z,27.23
2023-02-06T17:05:54.703Z,24.90
2023-02-06T17:08:41.265Z,28.90
2023-02-06T17:11:27.988Z,23.80
2023-02-06T17:14:14.663Z,27.33
2023-02-06T17:17:03.443Z,26.33
2023-02-06T17:19:52.818Z,29.30
2023-02-06T17:22:39.274Z,25.03
2023-02-06T17:25:25.955Z,27.07
2023-02-06T17:28:14.914Z,26.17
2023-02-06T17:31:01.313Z,23.77
2023-02-06T17:33:48.534Z,22.77
2023-02-06T17:36:39.556Z,27.13
2023-02-06T17:39:26.776Z,27.07
2023-02-06T17:42:14.776Z,30.20
2023-02-06T17:45:01.332Z,29.17
2023-02-06T17:47:48.136Z,29.47
2023-02-06T17:50:36.948Z,25.43
2023-02-06T17:53:24.932Z,32.80
2023-02-06T17:56:13.713Z,28.67
2023-02-06T17:59:00.236Z,29.90
2023-02-06T18:01:46.971Z,31.77
2023-02-06T18:04:33.710Z,30.03
2023-02-06T18:07:20.220Z,39.37
2023-02-06T18:10:09.482Z,28.63
2023-02-06T18:12:56.126Z,30.23
2023-02-06T18:15:48.997Z,28.87
2023-02-06T18:18:35.526Z,25.50
2023-02-06T18:21:24.452Z,28.83
2023-02-06T18:24:11.120Z,21.83
2023-02-06T18:27:03.026Z,24.30
2023-02-06T18:29:50.918Z,27.13
2023-02-06T18:32:39.271Z,26.23
2023-02-06T18:35:29.750Z,21.77
2023-02-06T18:38:16.573Z,24.23
2023-02-06T18:41:04.545Z,22.10
2023-02-06T18:43:51.542Z,25.27
2023-02-06T18:46:38.788Z,23.77
2023-02-06T18:49:25.543Z,21.17
2023-02-06T18:52:12.206Z,19.87
2023-02-06T18:54:58.832Z,26.20
2023-02-06T18:57:45.608Z,23.27
2023-02-06T19:00:35.673Z,26.93
2023-02-06T19:03:23.093Z,21.90
2023-02-06T19:06:17.620Z,25.53
2023-02-06T19:09:06.931Z,24.60
2023-02-06T19:11:53.323Z,23.40
2023-02-06T19:14:40.157Z,23.07
2023-02-06T19:17:29.022Z,25.63
2023-02-06T19:20:15.817Z,26.30
2023-02-06T19:23:02.266Z,27.27
2023-02-06T19:25:48.688Z,25.50
2023-02-06T19:28:35.733Z,23.10
2023-02-06T19:31:24.554Z,27.13
2023-02-06T19:34:12.083Z,24.33
2023-02-06T19:36:58.778Z,30.10
2023-02-06T19:39:45.479Z,26.10
2023-02-06T19:42:31.999Z,27.27
2023-02-06T19:45:18.438Z,28.47
2023-02-06T19:48:11.717Z,29.30
2023-02-06T19:51:05.074Z,28.50
2023-02-06T19:53:53.541Z,30.87
2023-02-06T19:56:42.651Z,30.20
2023-02-06T19:59:30.486Z,26.00
2023-02-06T20:02:17.436Z,28.10
2023-02-06T20:05:03.798Z,30.77
2023-02-06T20:07:51.640Z,27.50
2023-02-06T20:10:38.969Z,36.80
2023-02-06T20:13:25.681Z,30.97
2023-02-06T20:16:16.609Z,33.17
2023-02-06T20:19:08.058Z,36.30
2023-02-06T20:21:57.622Z,35.00
2023-02-06T20:24:45.546Z,36.57
2023-02-06T20:27:32.041Z,36.30
2023-02-06T20:30:19.625Z,41.73
2023-02-06T20:33:06.552Z,36.77
2023-02-06T20:35:53.075Z,31.30
2023-02-06T20:38:39.698Z,32.20
2023-02-06T20:41:30.029Z,32.63
2023-02-06T20:44:16.746Z,36.30
2023-02-06T20:47:03.262Z,29.77
2023-02-06T20:49:50.065Z,36.63
2023-02-06T20:52:37.035Z,37.20
2023-02-06T20:55:23.266Z,31.97
2023-02-06T20:58:11.489Z,30.83
2023-02-06T21:00:58.160Z,34.03
2023-02-06T21:03:45.005Z,39.67
2023-02-06T21:06:33.237Z,30.60
2023-02-06T21:09:20.268Z,33.00
2023-02-06T21:12:06.970Z,35.60
2023-02-06T21:14:54.645Z,34.87
2023-02-06T21:17:41.282Z,33.27
2023-02-06T21:20:27.751Z,36.27
2023-02-06T21:23:14.397Z,37.37
2023-02-06T21:26:00.947Z,32.90
2023-02-06T21:28:47.509Z,44.20
2023-02-06T21:31:38.569Z,38.20
2023-02-06T21:34:26.817Z,37.53
2023-02-06T21:37:14.342Z,38.83
2023-02-06T21:40:01.211Z,34.33
2023-02-06T21:42:47.627Z,33.43
2023-02-06T21:45:33.950Z,33.27
2023-02-06T21:48:21.797Z,38.90
2023-02-06T21:51:09.743Z,36.77
2023-02-06T21:53:57.068Z,40.53
2023-02-06T21:56:44.564Z,44.27
2023-02-06T21:59:33.790Z,41.50
2023-02-06T22:02:20.379Z,40.43
2023-02-06T22:05:08.538Z,42.27
2023-02-06T22:07:56.756Z,46.40
2023-02-06T22:10:43.276Z,41.83
2023-02-06T22:13:29.654Z,39.13
2023-02-06T22:16:18.438Z,45.20
2023-02-06T22:19:05.622Z,36.90
2023-02-06T22:21:53.642Z,44.83
2023-02-06T22:24:39.998Z,37.60
2023-02-06T22:27:26.518Z,38.83
2023-02-06T22:30:13.980Z,43.30
2023-02-06T22:33:00.894Z,43.97
2023-02-06T22:35:47.236Z,44.87
2023-02-06T22:38:35.604Z,50.00
2023-02-06T22:41:21.950Z,42.90
2023-02-06T22:44:10.222Z,47.43
2023-02-06T22:46:56.966Z,56.80
2023-02-06T22:49:43.356Z,38.13
2023-02-06T22:52:47.574Z,43.13
2023-02-06T22:55:53.594Z,35.70
2023-02-06T22:58:40.756Z,35.93
2023-02-06T23:01:31.888Z,39.67
2023-02-06T23:04:20.584Z,39.57
2023-02-06T23:07:07.190Z,40.50
2023-02-06T23:09:54.098Z,35.33
2023-02-06T23:12:42.016Z,42.00
2023-02-06T23:15:28.781Z,40.30
2023-02-06T23:18:15.354Z,31.10
2023-02-06T23:21:03.941Z,36.27
2023-02-06T23:23:50.656Z,42.60
2023-02-06T23:26:37.577Z,34.57
2023-02-06T23:29:25.375Z,37.33
2023-02-06T23:32:11.798Z,37.67
2023-02-06T23:34:59.493Z,37.83
2023-02-06T23:37:46.171Z,33.83
2023-02-06T23:40:33.127Z,27.90
2023-02-06T23:43:19.508Z,35.53
2023-02-06T23:46:11.012Z,36.13
2023-02-06T23:48:59.676Z,32.93
2023-02-06T23:51:46.342Z,33.17
2023-02-06T23:54:32.911Z,36.30
2023-02-06T23:57:19.428Z,42.43
